• Join FlightAware (Why Join?)
  • Login
  • US Flag 
01:52PM EDT


 

Airport Tracker/Info


-or-


 

Live Flight TrackerFlight Track Log ✈ RPA3283 ✈ 09-May-2013 ✈ KCLT - KJAX

Flight Track Log - Related Links

Times and Time Zones

All times are in EDT time to prevent confusion due to time zone crossing. See the RPA3283 flight status page for this flight to view local times or setup timezone preferences in your user account.

Time Position Orientation Groundspeed Altitude Reporting Facility
EDT Latitude Longitude Course Direction KTS MPH feet Rate Location/Type
08:06AM 35.1928 -80.9356 180° South 158 182 1,300  Level Atlanta Center
08:07AM 35.1553 -80.9319 175° South 173 199 2,300 1,500 Climbing Atlanta Center
08:08AM 34.9453 -80.9933 175° South  Level Estimated
08:08AM 35.0861 -80.9192 171° South 275 316 4,000  Level Atlanta Center
08:08AM 35.0861 -80.9192 171° South 273 314 4,000 2,760 Level Atlanta Center
08:09AM 34.8686 -80.9352 148° Southeast  Level FlightAware Approximate
08:09AM 35.0086 -80.9094 174° South 284 327 6,800  Level Atlanta Center
08:10AM 34.7793 -80.9513 180° South  Level Estimated
08:10AM 34.9269 -80.9025 176° South 298 343 9,200  Level Atlanta Center
08:11AM 34.6899 -80.9675 180° South  Level Estimated
08:11AM 34.8436 -80.9056 182° South 306 352 11,000  Level Atlanta Center
08:12AM 34.7622 -80.8986 176° South 319 367 13,000 1,920 Climbing Atlanta Center
08:14AM 34.5464 -80.8861 177° South 363 418 17,000 1,800 Climbing Jacksonville Center
08:15AM 34.4444 -80.9036 188° South 363 418 18,600 1,560 Climbing Jacksonville Center
08:16AM 34.3425 -80.9183 187° South 372 428 20,200 1,440 Climbing Jacksonville Center
08:17AM 34.2425 -80.9308 186° South 372 428 21,500 1,320 Climbing Jacksonville Center
08:18AM 34.1303 -80.9433 185° South 377 434 22,900 1,200 Climbing Jacksonville Center
08:19AM 34.0197 -80.9608 187° South 392 451 24,000 1,080 Climbing Jacksonville Center
08:20AM 33.9053 -80.9733 185° South 406 467 25,100 1,080 Climbing Jacksonville Center
08:21AM 33.7886 -80.9908 187° South 418 481 26,200 1,140 Climbing Jacksonville Center
08:22AM 33.6719 -81.0058 186° South 423 487 27,400 900 Climbing Jacksonville Center
08:23AM 33.5533 -81.0233 187° South 428 493 28,000 300 Climbing Jacksonville Center
08:24AM 33.4306 -81.0383 186° South 439 505 28,000  Level Jacksonville Center
08:25AM 33.3097 -81.0533 186° South 444 511 28,000  Level Jacksonville Center
08:26AM 33.1867 -81.0683 186° South 444 511 28,000  Level Jacksonville Center
08:27AM 33.0639 -81.0831 186° South 444 511 28,000  Level Jacksonville Center
08:28AM 32.9428 -81.0981 186° South 444 511 28,000  Level Jacksonville Center
08:29AM 32.8242 -81.1153 187° South 444 511 28,000  Level Jacksonville Center
08:30AM 32.7117 -81.1297 186° South 450 518 28,000  Level Jacksonville Center
08:31AM 32.5928 -81.1469 187° South 441 507 28,000 -240 Level Jacksonville Center
08:32AM 32.4594 -81.1667 187° South 441 507 27,600 -780 Descending Jacksonville Center
08:33AM 32.3514 -81.1833 187° South 447 514 26,500 -1,200 Descending Jacksonville Center
08:34AM 32.2347 -81.2078 190° South 435 501 25,300 -1,200 Descending Jacksonville Center
08:35AM 32.1222 -81.2294 189° South 429 494 24,100 -1,200 Descending Jacksonville Center
08:36AM 32.0119 -81.2558 191° South 416 479 23,000 -1,140 Descending Jacksonville Center
08:37AM 31.9014 -81.2750 188° South 409 471 21,900 -1,200 Descending Jacksonville Center
08:38AM 31.7850 -81.2992 190° South 397 457 20,600 -1,260 Descending Jacksonville Center
08:39AM 31.6808 -81.3203 190° South 387 445 19,400 -1,200 Descending Jacksonville Center
08:40AM 31.5911 -81.3364 189° South 374 430 18,300 -1,200 Descending Jacksonville Center
08:41AM 31.4828 -81.3603 191° South 369 425 17,000 -1,440 Descending Jacksonville Center
08:42AM 31.3892 -81.3764 188° South 360 414 15,500 -1,560 Descending Jacksonville Center
08:43AM 31.2956 -81.3997 192° South 341 392 13,900 -1,560 Descending Jacksonville Center
08:44AM 31.2081 -81.4181 190° South 331 381 12,400 -1,500 Descending Jacksonville Center
08:44AM 31.1456 -81.4314 190° South 324 373 11,400 -1,440 Descending Jacksonville Center
08:45AM 31.1164 -81.4342 185° South 331 381 11,000 -1,320 Descending Jacksonville Center
08:46AM 31.0517 -81.4472 190° South 317 365 10,000 -600 Descending Jacksonville Center
08:47AM 30.9706 -81.4681 192° South 297 342 10,000 -180 Level Jacksonville Center
08:48AM 30.8917 -81.5053 202° Southwest 269 310 9,700 -1,200 Descending Jacksonville Center
08:49AM 30.8106 -81.5406 200° South 281 323 7,500 -1,800 Descending Jacksonville Center
08:50AM 30.7483 -81.5753 206° Southwest 276 318 6,100 -1,620 Descending Jacksonville Center
08:51AM 30.6797 -81.6075 202° Southwest 272 313 4,400 -1,680 Descending Jacksonville Center
08:52AM 30.5922 -81.6158 185° South 264 304 2,600 -1,140 Descending Jacksonville Center
08:53AM 30.5233 -81.6169 181° South 233 268 2,000 -600 Descending Jacksonville Center
08:54AM 30.4753 -81.6128 176° South 166 191 1,500 -600 Descending Jacksonville Center